sensor_id;sensor_type;location;lat;lon;timestamp;P1;durP1;ratioP1;P2;durP2;ratioP2
21721;SDS011;11023;48.274;7.794;2022-09-02T00:00:44;5.90;;;4.13;;
21721;SDS011;11023;48.274;7.794;2022-09-02T00:03:13;4.03;;;3.72;;
21721;SDS011;11023;48.274;7.794;2022-09-02T00:05:39;7.25;;;4.00;;
21721;SDS011;11023;48.274;7.794;2022-09-02T00:08:06;4.53;;;4.10;;
21721;SDS011;11023;48.274;7.794;2022-09-02T00:10:34;3.92;;;3.63;;
21721;SDS011;11023;48.274;7.794;2022-09-02T00:13:01;4.50;;;4.10;;
21721;SDS011;11023;48.274;7.794;2022-09-02T00:15:28;4.30;;;3.90;;
21721;SDS011;11023;48.274;7.794;2022-09-02T00:17:53;5.55;;;3.90;;
21721;SDS011;11023;48.274;7.794;2022-09-02T00:20:21;4.15;;;3.75;;
21721;SDS011;11023;48.274;7.794;2022-09-02T00:22:47;8.05;;;4.43;;
21721;SDS011;11023;48.274;7.794;2022-09-02T00:25:13;6.05;;;4.60;;
21721;SDS011;11023;48.274;7.794;2022-09-02T00:27:38;4.32;;;4.00;;
21721;SDS011;11023;48.274;7.794;2022-09-02T00:30:05;4.07;;;3.67;;
21721;SDS011;11023;48.274;7.794;2022-09-02T00:32:31;7.05;;;3.80;;
21721;SDS011;11023;48.274;7.794;2022-09-02T00:34:57;4.45;;;3.53;;
21721;SDS011;11023;48.274;7.794;2022-09-02T00:37:23;4.25;;;3.60;;
21721;SDS011;11023;48.274;7.794;2022-09-02T00:39:51;3.58;;;3.28;;
21721;SDS011;11023;48.274;7.794;2022-09-02T00:42:18;6.70;;;3.90;;
21721;SDS011;11023;48.274;7.794;2022-09-02T00:44:45;3.90;;;3.60;;
21721;SDS011;11023;48.274;7.794;2022-09-02T00:47:11;5.28;;;4.07;;
21721;SDS011;11023;48.274;7.794;2022-09-02T00:49:39;4.07;;;3.67;;
21721;SDS011;11023;48.274;7.794;2022-09-02T00:52:15;3.85;;;3.45;;
21721;SDS011;11023;48.274;7.794;2022-09-02T00:54:54;4.05;;;3.70;;
21721;SDS011;11023;48.274;7.794;2022-09-02T00:57:24;4.07;;;3.78;;
21721;SDS011;11023;48.274;7.794;2022-09-02T00:59:55;4.22;;;3.83;;
21721;SDS011;11023;48.274;7.794;2022-09-02T01:02:32;6.05;;;4.35;;
21721;SDS011;11023;48.274;7.794;2022-09-02T01:04:59;6.70;;;4.43;;
21721;SDS011;11023;48.274;7.794;2022-09-02T01:07:27;5.93;;;4.00;;
21721;SDS011;11023;48.274;7.794;2022-09-02T01:09:55;4.43;;;4.03;;
21721;SDS011;11023;48.274;7.794;2022-09-02T01:12:22;6.07;;;3.83;;
21721;SDS011;11023;48.274;7.794;2022-09-02T01:14:49;4.82;;;4.30;;
21721;SDS011;11023;48.274;7.794;2022-09-02T01:17:15;5.20;;;3.78;;
21721;SDS011;11023;48.274;7.794;2022-09-02T01:19:44;4.15;;;3.75;;
21721;SDS011;11023;48.274;7.794;2022-09-02T01:22:17;4.97;;;3.80;;
21721;SDS011;11023;48.274;7.794;2022-09-02T01:24:44;6.13;;;3.72;;
21721;SDS011;11023;48.274;7.794;2022-09-02T01:27:13;4.18;;;3.78;;
21721;SDS011;11023;48.274;7.794;2022-09-02T01:29:40;4.55;;;4.05;;
21721;SDS011;11023;48.274;7.794;2022-09-02T01:32:06;5.13;;;3.97;;
21721;SDS011;11023;48.274;7.794;2022-09-02T01:34:32;4.15;;;3.78;;
21721;SDS011;11023;48.274;7.794;2022-09-02T01:36:57;5.32;;;3.58;;
21721;SDS011;11023;48.274;7.794;2022-09-02T01:39:23;5.40;;;4.10;;
21721;SDS011;11023;48.274;7.794;2022-09-02T01:41:49;5.32;;;3.85;;
21721;SDS011;11023;48.274;7.794;2022-09-02T01:44:15;4.55;;;4.00;;
21721;SDS011;11023;48.274;7.794;2022-09-02T01:46:41;5.13;;;3.85;;
21721;SDS011;11023;48.274;7.794;2022-09-02T01:49:07;7.32;;;4.50;;
21721;SDS011;11023;48.274;7.794;2022-09-02T01:51:33;4.43;;;3.75;;
21721;SDS011;11023;48.274;7.794;2022-09-02T01:53:58;9.27;;;4.38;;
21721;SDS011;11023;48.274;7.794;2022-09-02T01:56:24;5.30;;;4.80;;
21721;SDS011;11023;48.274;7.794;2022-09-02T01:58:50;7.70;;;4.68;;
21721;SDS011;11023;48.274;7.794;2022-09-02T02:01:15;5.38;;;3.90;;
21721;SDS011;11023;48.274;7.794;2022-09-02T02:03:41;5.97;;;4.28;;
21721;SDS011;11023;48.274;7.794;2022-09-02T02:06:10;5.03;;;4.35;;
21721;SDS011;11023;48.274;7.794;2022-09-02T02:08:38;6.15;;;4.10;;
21721;SDS011;11023;48.274;7.794;2022-09-02T02:11:04;4.63;;;4.22;;
21721;SDS011;11023;48.274;7.794;2022-09-02T02:13:30;7.78;;;4.15;;
21721;SDS011;11023;48.274;7.794;2022-09-02T02:15:56;7.13;;;4.22;;
21721;SDS011;11023;48.274;7.794;2022-09-02T02:18:22;6.03;;;4.50;;
21721;SDS011;11023;48.274;7.794;2022-09-02T02:20:48;7.35;;;4.32;;
21721;SDS011;11023;48.274;7.794;2022-09-02T02:23:14;6.78;;;4.60;;
21721;SDS011;11023;48.274;7.794;2022-09-02T02:25:40;5.53;;;4.10;;
21721;SDS011;11023;48.274;7.794;2022-09-02T02:28:07;6.32;;;4.28;;
21721;SDS011;11023;48.274;7.794;2022-09-02T02:30:32;4.63;;;4.22;;
21721;SDS011;11023;48.274;7.794;2022-09-02T02:32:58;4.90;;;4.50;;
21721;SDS011;11023;48.274;7.794;2022-09-02T02:35:24;4.95;;;4.45;;
21721;SDS011;11023;48.274;7.794;2022-09-02T02:37:50;6.40;;;4.20;;
21721;SDS011;11023;48.274;7.794;2022-09-02T02:40:17;5.00;;;3.90;;
21721;SDS011;11023;48.274;7.794;2022-09-02T02:42:45;6.55;;;4.70;;
21721;SDS011;11023;48.274;7.794;2022-09-02T02:45:11;5.53;;;4.60;;
21721;SDS011;11023;48.274;7.794;2022-09-02T02:47:38;5.63;;;4.43;;
21721;SDS011;11023;48.274;7.794;2022-09-02T02:50:08;6.45;;;5.05;;
21721;SDS011;11023;48.274;7.794;2022-09-02T02:52:38;5.35;;;4.18;;
21721;SDS011;11023;48.274;7.794;2022-09-02T02:55:05;6.68;;;4.20;;
21721;SDS011;11023;48.274;7.794;2022-09-02T02:57:32;8.60;;;4.90;;
21721;SDS011;11023;48.274;7.794;2022-09-02T03:00:02;7.22;;;4.55;;
21721;SDS011;11023;48.274;7.794;2022-09-02T03:02:39;8.02;;;4.55;;
21721;SDS011;11023;48.274;7.794;2022-09-02T03:05:05;4.75;;;4.22;;
21721;SDS011;11023;48.274;7.794;2022-09-02T03:07:32;6.80;;;4.93;;
21721;SDS011;11023;48.274;7.794;2022-09-02T03:09:58;7.80;;;4.80;;
21721;SDS011;11023;48.274;7.794;2022-09-02T03:12:24;5.95;;;4.70;;
21721;SDS011;11023;48.274;7.794;2022-09-02T03:14:50;4.97;;;4.57;;
21721;SDS011;11023;48.274;7.794;2022-09-02T03:17:17;5.82;;;4.20;;
21721;SDS011;11023;48.274;7.794;2022-09-02T03:19:43;4.97;;;4.35;;
21721;SDS011;11023;48.274;7.794;2022-09-02T03:22:10;4.82;;;4.30;;
21721;SDS011;11023;48.274;7.794;2022-09-02T03:24:37;4.75;;;3.80;;
21721;SDS011;11023;48.274;7.794;2022-09-02T03:27:03;5.70;;;4.13;;
21721;SDS011;11023;48.274;7.794;2022-09-02T03:29:29;5.80;;;4.60;;
21721;SDS011;11023;48.274;7.794;2022-09-02T03:31:55;5.18;;;4.00;;
21721;SDS011;11023;48.274;7.794;2022-09-02T03:34:21;6.97;;;4.20;;
21721;SDS011;11023;48.274;7.794;2022-09-02T03:36:47;4.82;;;4.32;;
21721;SDS011;11023;48.274;7.794;2022-09-02T03:39:13;6.07;;;4.55;;
21721;SDS011;11023;48.274;7.794;2022-09-02T03:41:39;4.88;;;3.83;;
21721;SDS011;11023;48.274;7.794;2022-09-02T03:44:08;4.72;;;4.25;;
21721;SDS011;11023;48.274;7.794;2022-09-02T03:46:34;5.22;;;3.80;;
21721;SDS011;11023;48.274;7.794;2022-09-02T03:49:01;5.35;;;4.03;;
21721;SDS011;11023;48.274;7.794;2022-09-02T03:51:27;5.85;;;4.05;;
21721;SDS011;11023;48.274;7.794;2022-09-02T03:53:53;6.25;;;3.97;;
21721;SDS011;11023;48.274;7.794;2022-09-02T03:56:19;4.40;;;4.00;;
21721;SDS011;11023;48.274;7.794;2022-09-02T03:58:47;5.97;;;3.88;;
21721;SDS011;11023;48.274;7.794;2022-09-02T04:01:15;5.75;;;4.00;;
21721;SDS011;11023;48.274;7.794;2022-09-02T04:03:43;3.95;;;3.55;;
21721;SDS011;11023;48.274;7.794;2022-09-02T04:06:09;5.13;;;3.90;;
21721;SDS011;11023;48.274;7.794;2022-09-02T04:08:38;4.20;;;3.80;;
21721;SDS011;11023;48.274;7.794;2022-09-02T04:11:05;4.28;;;3.50;;
21721;SDS011;11023;48.274;7.794;2022-09-02T04:13:37;5.25;;;3.60;;
21721;SDS011;11023;48.274;7.794;2022-09-02T04:16:22;5.75;;;3.90;;
21721;SDS011;11023;48.274;7.794;2022-09-02T04:18:55;4.13;;;3.83;;
21721;SDS011;11023;48.274;7.794;2022-09-02T04:21:24;8.50;;;3.90;;
21721;SDS011;11023;48.274;7.794;2022-09-02T04:23:50;7.57;;;4.32;;
21721;SDS011;11023;48.274;7.794;2022-09-02T04:26:16;5.40;;;4.20;;
21721;SDS011;11023;48.274;7.794;2022-09-02T04:28:43;6.70;;;4.20;;
21721;SDS011;11023;48.274;7.794;2022-09-02T04:31:11;5.72;;;4.30;;
21721;SDS011;11023;48.274;7.794;2022-09-02T04:33:39;4.82;;;4.10;;
21721;SDS011;11023;48.274;7.794;2022-09-02T04:36:06;6.88;;;4.40;;
21721;SDS011;11023;48.274;7.794;2022-09-02T04:38:33;7.22;;;4.18;;
21721;SDS011;11023;48.274;7.794;2022-09-02T04:41:08;7.20;;;3.97;;
21721;SDS011;11023;48.274;7.794;2022-09-02T04:43:36;4.32;;;3.92;;
21721;SDS011;11023;48.274;7.794;2022-09-02T04:46:05;5.70;;;4.55;;
21721;SDS011;11023;48.274;7.794;2022-09-02T04:48:33;6.63;;;3.95;;
21721;SDS011;11023;48.274;7.794;2022-09-02T04:51:03;7.18;;;4.80;;
21721;SDS011;11023;48.274;7.794;2022-09-02T04:53:30;8.32;;;4.25;;
21721;SDS011;11023;48.274;7.794;2022-09-02T04:55:56;5.57;;;3.90;;
21721;SDS011;11023;48.274;7.794;2022-09-02T04:58:22;5.45;;;3.97;;
21721;SDS011;11023;48.274;7.794;2022-09-02T05:00:48;7.97;;;4.05;;
21721;SDS011;11023;48.274;7.794;2022-09-02T05:03:14;10.35;;;4.20;;
21721;SDS011;11023;48.274;7.794;2022-09-02T05:05:40;6.63;;;4.60;;
21721;SDS011;11023;48.274;7.794;2022-09-02T05:08:05;7.00;;;4.10;;
21721;SDS011;11023;48.274;7.794;2022-09-02T05:10:31;6.78;;;4.20;;
21721;SDS011;11023;48.274;7.794;2022-09-02T05:12:58;7.13;;;4.25;;
21721;SDS011;11023;48.274;7.794;2022-09-02T05:15:25;9.23;;;4.20;;
21721;SDS011;11023;48.274;7.794;2022-09-02T05:17:51;5.35;;;3.80;;
21721;SDS011;11023;48.274;7.794;2022-09-02T05:20:16;4.53;;;4.00;;
21721;SDS011;11023;48.274;7.794;2022-09-02T05:22:43;5.63;;;3.78;;
21721;SDS011;11023;48.274;7.794;2022-09-02T05:25:10;5.63;;;3.78;;
21721;SDS011;11023;48.274;7.794;2022-09-02T05:27:37;8.80;;;4.22;;
21721;SDS011;11023;48.274;7.794;2022-09-02T05:30:03;4.82;;;4.32;;
21721;SDS011;11023;48.274;7.794;2022-09-02T05:32:30;8.43;;;4.45;;
21721;SDS011;11023;48.274;7.794;2022-09-02T05:34:56;8.77;;;4.07;;
21721;SDS011;11023;48.274;7.794;2022-09-02T05:37:22;5.15;;;3.88;;
21721;SDS011;11023;48.274;7.794;2022-09-02T05:39:49;3.70;;;3.40;;
21721;SDS011;11023;48.274;7.794;2022-09-02T05:42:15;3.80;;;3.40;;
21721;SDS011;11023;48.274;7.794;2022-09-02T05:44:41;6.53;;;4.00;;
21721;SDS011;11023;48.274;7.794;2022-09-02T05:47:09;6.55;;;3.70;;
21721;SDS011;11023;48.274;7.794;2022-09-02T05:49:36;5.57;;;3.42;;
21721;SDS011;11023;48.274;7.794;2022-09-02T05:52:03;5.35;;;4.18;;
21721;SDS011;11023;48.274;7.794;2022-09-02T05:54:36;4.63;;;4.07;;
21721;SDS011;11023;48.274;7.794;2022-09-02T05:57:04;5.57;;;4.20;;
21721;SDS011;11023;48.274;7.794;2022-09-02T05:59:34;6.20;;;4.30;;
21721;SDS011;11023;48.274;7.794;2022-09-02T06:02:04;5.43;;;4.00;;
21721;SDS011;11023;48.274;7.794;2022-09-02T06:04:30;6.18;;;4.47;;
21721;SDS011;11023;48.274;7.794;2022-09-02T06:06:56;7.25;;;4.03;;
21721;SDS011;11023;48.274;7.794;2022-09-02T06:09:23;7.80;;;4.03;;
21721;SDS011;11023;48.274;7.794;2022-09-02T06:11:50;9.23;;;5.00;;
21721;SDS011;11023;48.274;7.794;2022-09-02T06:14:20;7.65;;;4.43;;
21721;SDS011;11023;48.274;7.794;2022-09-02T06:16:49;8.68;;;4.93;;
21721;SDS011;11023;48.274;7.794;2022-09-02T06:19:17;9.85;;;5.25;;
21721;SDS011;11023;48.274;7.794;2022-09-02T06:21:43;7.90;;;4.88;;
21721;SDS011;11023;48.274;7.794;2022-09-02T06:24:10;7.25;;;4.40;;
21721;SDS011;11023;48.274;7.794;2022-09-02T06:26:36;9.07;;;4.45;;
21721;SDS011;11023;48.274;7.794;2022-09-02T06:29:04;7.05;;;4.30;;
21721;SDS011;11023;48.274;7.794;2022-09-02T06:31:30;7.25;;;4.57;;
21721;SDS011;11023;48.274;7.794;2022-09-02T06:33:58;9.45;;;4.38;;
21721;SDS011;11023;48.274;7.794;2022-09-02T06:36:25;5.50;;;3.83;;
21721;SDS011;11023;48.274;7.794;2022-09-02T06:38:53;6.18;;;4.07;;
21721;SDS011;11023;48.274;7.794;2022-09-02T06:41:22;8.68;;;3.75;;
21721;SDS011;11023;48.274;7.794;2022-09-02T06:43:54;4.65;;;3.53;;
21721;SDS011;11023;48.274;7.794;2022-09-02T06:46:22;5.15;;;2.97;;
21721;SDS011;11023;48.274;7.794;2022-09-02T06:48:50;6.35;;;2.72;;
21721;SDS011;11023;48.274;7.794;2022-09-02T06:51:24;4.13;;;2.85;;
21721;SDS011;11023;48.274;7.794;2022-09-02T06:53:51;4.43;;;2.50;;
21721;SDS011;11023;48.274;7.794;2022-09-02T06:56:17;3.53;;;2.38;;
21721;SDS011;11023;48.274;7.794;2022-09-02T06:58:43;4.05;;;2.38;;
21721;SDS011;11023;48.274;7.794;2022-09-02T07:01:09;3.90;;;2.55;;
21721;SDS011;11023;48.274;7.794;2022-09-02T07:03:52;2.90;;;2.40;;
21721;SDS011;11023;48.274;7.794;2022-09-02T07:06:37;3.55;;;2.60;;
21721;SDS011;11023;48.274;7.794;2022-09-02T07:09:06;5.28;;;2.38;;
21721;SDS011;11023;48.274;7.794;2022-09-02T07:11:33;6.22;;;2.47;;
21721;SDS011;11023;48.274;7.794;2022-09-02T07:14:00;5.97;;;2.40;;
21721;SDS011;11023;48.274;7.794;2022-09-02T07:16:29;2.75;;;2.20;;
21721;SDS011;11023;48.274;7.794;2022-09-02T07:18:57;4.22;;;1.80;;
21721;SDS011;11023;48.274;7.794;2022-09-02T07:21:25;3.97;;;2.00;;
21721;SDS011;11023;48.274;7.794;2022-09-02T07:23:53;2.83;;;1.95;;
21721;SDS011;11023;48.274;7.794;2022-09-02T07:26:20;1.90;;;1.70;;
21721;SDS011;11023;48.274;7.794;2022-09-02T07:28:46;3.00;;;1.70;;
21721;SDS011;11023;48.274;7.794;2022-09-02T07:31:12;3.15;;;1.48;;
21721;SDS011;11023;48.274;7.794;2022-09-02T07:33:41;3.45;;;1.73;;
21721;SDS011;11023;48.274;7.794;2022-09-02T07:36:09;1.92;;;1.63;;
21721;SDS011;11023;48.274;7.794;2022-09-02T07:38:37;4.00;;;1.77;;
21721;SDS011;11023;48.274;7.794;2022-09-02T07:41:06;3.85;;;1.77;;
21721;SDS011;11023;48.274;7.794;2022-09-02T07:43:34;3.00;;;1.42;;
21721;SDS011;11023;48.274;7.794;2022-09-02T07:46:02;2.35;;;1.38;;
21721;SDS011;11023;48.274;7.794;2022-09-02T07:48:30;1.70;;;1.60;;
21721;SDS011;11023;48.274;7.794;2022-09-02T07:50:56;1.63;;;1.52;;
21721;SDS011;11023;48.274;7.794;2022-09-02T07:53:23;2.30;;;1.50;;
21721;SDS011;11023;48.274;7.794;2022-09-02T07:55:49;3.35;;;1.63;;
21721;SDS011;11023;48.274;7.794;2022-09-02T07:58:15;1.60;;;1.50;;
21721;SDS011;11023;48.274;7.794;2022-09-02T08:00:42;1.73;;;1.63;;
21721;SDS011;11023;48.274;7.794;2022-09-02T08:03:09;1.63;;;1.42;;
21721;SDS011;11023;48.274;7.794;2022-09-02T08:05:35;1.83;;;1.48;;
21721;SDS011;11023;48.274;7.794;2022-09-02T08:08:02;1.73;;;1.50;;
21721;SDS011;11023;48.274;7.794;2022-09-02T08:10:29;3.25;;;1.50;;
21721;SDS011;11023;48.274;7.794;2022-09-02T08:12:56;2.53;;;1.38;;
21721;SDS011;11023;48.274;7.794;2022-09-02T08:15:24;1.80;;;1.27;;
21721;SDS011;11023;48.274;7.794;2022-09-02T08:17:53;4.97;;;1.60;;
21721;SDS011;11023;48.274;7.794;2022-09-02T08:20:20;1.50;;;1.40;;
21721;SDS011;11023;48.274;7.794;2022-09-02T08:22:46;3.25;;;1.60;;
21721;SDS011;11023;48.274;7.794;2022-09-02T08:25:12;2.90;;;1.50;;
21721;SDS011;11023;48.274;7.794;2022-09-02T08:27:39;1.38;;;1.27;;
21721;SDS011;11023;48.274;7.794;2022-09-02T08:30:05;3.08;;;1.70;;
21721;SDS011;11023;48.274;7.794;2022-09-02T08:32:36;4.88;;;1.50;;
21721;SDS011;11023;48.274;7.794;2022-09-02T08:35:03;1.73;;;1.40;;
21721;SDS011;11023;48.274;7.794;2022-09-02T08:37:30;2.30;;;1.20;;
21721;SDS011;11023;48.274;7.794;2022-09-02T08:39:57;2.72;;;1.40;;
21721;SDS011;11023;48.274;7.794;2022-09-02T08:42:29;1.77;;;1.48;;
21721;SDS011;11023;48.274;7.794;2022-09-02T08:45:31;1.48;;;1.38;;
21721;SDS011;11023;48.274;7.794;2022-09-02T08:48:03;2.28;;;1.67;;
21721;SDS011;11023;48.274;7.794;2022-09-02T08:50:36;2.78;;;1.60;;
21721;SDS011;11023;48.274;7.794;2022-09-02T08:55:55;3.40;;;1.48;;
21721;SDS011;11023;48.274;7.794;2022-09-02T08:58:23;1.38;;;1.25;;
21721;SDS011;11023;48.274;7.794;2022-09-02T09:04:08;3.20;;;1.10;;
21721;SDS011;11023;48.274;7.794;2022-09-02T09:12:06;1.40;;;1.30;;
21721;SDS011;11023;48.274;7.794;2022-09-02T09:17:27;2.40;;;1.52;;
21721;SDS011;11023;48.274;7.794;2022-09-02T09:20:05;2.15;;;1.30;;
21721;SDS011;11023;48.274;7.794;2022-09-02T09:22:39;1.70;;;1.40;;
21721;SDS011;11023;48.274;7.794;2022-09-02T09:25:08;1.42;;;1.10;;
21721;SDS011;11023;48.274;7.794;2022-09-02T09:27:36;1.38;;;1.15;;
21721;SDS011;11023;48.274;7.794;2022-09-02T09:30:02;1.40;;;1.30;;
21721;SDS011;11023;48.274;7.794;2022-09-02T09:37:37;2.92;;;1.50;;
21721;SDS011;11023;48.274;7.794;2022-09-02T09:42:49;2.35;;;1.50;;
21721;SDS011;11023;48.274;7.794;2022-09-02T09:45:37;2.03;;;1.55;;
21721;SDS011;11023;48.274;7.794;2022-09-02T09:48:18;2.33;;;1.48;;
21721;SDS011;11023;48.274;7.794;2022-09-02T09:53:21;2.20;;;1.25;;
21721;SDS011;11023;48.274;7.794;2022-09-02T09:55:49;3.80;;;1.30;;
21721;SDS011;11023;48.274;7.794;2022-09-02T09:58:18;2.78;;;1.50;;
21721;SDS011;11023;48.274;7.794;2022-09-02T10:00:46;2.92;;;1.15;;
21721;SDS011;11023;48.274;7.794;2022-09-02T10:03:25;2.53;;;1.40;;
21721;SDS011;11023;48.274;7.794;2022-09-02T10:05:58;3.28;;;1.30;;
21721;SDS011;11023;48.274;7.794;2022-09-02T10:08:53;2.55;;;1.40;;
21721;SDS011;11023;48.274;7.794;2022-09-02T10:11:31;1.10;;;1.00;;
21721;SDS011;11023;48.274;7.794;2022-09-02T10:13:59;1.73;;;1.20;;
21721;SDS011;11023;48.274;7.794;2022-09-02T10:16:53;3.05;;;1.35;;
21721;SDS011;11023;48.274;7.794;2022-09-02T10:25:06;2.90;;;1.27;;
21721;SDS011;11023;48.274;7.794;2022-09-02T10:30:17;1.42;;;1.30;;
21721;SDS011;11023;48.274;7.794;2022-09-02T10:35:55;1.40;;;1.30;;
21721;SDS011;11023;48.274;7.794;2022-09-02T10:38:38;3.22;;;1.25;;
21721;SDS011;11023;48.274;7.794;2022-09-02T10:41:26;2.28;;;1.25;;
21721;SDS011;11023;48.274;7.794;2022-09-02T10:44:18;1.30;;;1.20;;
21721;SDS011;11023;48.274;7.794;2022-09-02T10:49:56;2.00;;;1.40;;
21721;SDS011;11023;48.274;7.794;2022-09-02T11:00:49;2.95;;;1.42;;
21721;SDS011;11023;48.274;7.794;2022-09-02T11:03:23;3.33;;;1.40;;
21721;SDS011;11023;48.274;7.794;2022-09-02T11:06:37;4.05;;;1.40;;
21721;SDS011;11023;48.274;7.794;2022-09-02T11:08:40;5.97;;;1.40;;
21721;SDS011;11023;48.274;7.794;2022-09-02T11:11:18;1.70;;;1.30;;
21721;SDS011;11023;48.274;7.794;2022-09-02T11:14:08;1.30;;;1.20;;
21721;SDS011;11023;48.274;7.794;2022-09-02T11:19:19;1.58;;;1.30;;
21721;SDS011;11023;48.274;7.794;2022-09-02T11:21:59;1.55;;;1.40;;
21721;SDS011;11023;48.274;7.794;2022-09-02T11:27:37;1.40;;;1.30;;
21721;SDS011;11023;48.274;7.794;2022-09-02T11:30:19;4.65;;;1.27;;
21721;SDS011;11023;48.274;7.794;2022-09-02T11:32:48;1.35;;;1.25;;
21721;SDS011;11023;48.274;7.794;2022-09-02T11:35:25;2.15;;;1.38;;
21721;SDS011;11023;48.274;7.794;2022-09-02T11:37:58;3.17;;;1.40;;
21721;SDS011;11023;48.274;7.794;2022-09-02T11:40:44;4.28;;;1.40;;
21721;SDS011;11023;48.274;7.794;2022-09-02T11:43:43;1.70;;;1.40;;
21721;SDS011;11023;48.274;7.794;2022-09-02T11:46:55;2.10;;;1.33;;
21721;SDS011;11023;48.274;7.794;2022-09-02T11:55:09;3.92;;;1.90;;
21721;SDS011;11023;48.274;7.794;2022-09-02T11:57:39;1.40;;;1.30;;
21721;SDS011;11023;48.274;7.794;2022-09-02T12:00:06;1.30;;;1.20;;
21721;SDS011;11023;48.274;7.794;2022-09-02T12:15:35;3.72;;;1.52;;
21721;SDS011;11023;48.274;7.794;2022-09-02T12:26:16;1.15;;;1.05;;
21721;SDS011;11023;48.274;7.794;2022-09-02T12:28:43;1.75;;;1.25;;
21721;SDS011;11023;48.274;7.794;2022-09-02T12:31:17;3.67;;;1.33;;
21721;SDS011;11023;48.274;7.794;2022-09-02T12:34:53;2.83;;;1.20;;
21721;SDS011;11023;48.274;7.794;2022-09-02T12:36:54;1.85;;;1.20;;
21721;SDS011;11023;48.274;7.794;2022-09-02T12:41:49;4.25;;;1.40;;
21721;SDS011;11023;48.274;7.794;2022-09-02T12:47:00;1.73;;;1.30;;
21721;SDS011;11023;48.274;7.794;2022-09-02T12:50:16;2.58;;;1.30;;
21721;SDS011;11023;48.274;7.794;2022-09-02T12:55:42;2.00;;;1.30;;
21721;SDS011;11023;48.274;7.794;2022-09-02T12:57:54;1.90;;;1.20;;
21721;SDS011;11023;48.274;7.794;2022-09-02T13:03:34;2.42;;;1.33;;
21721;SDS011;11023;48.274;7.794;2022-09-02T13:26:08;2.88;;;1.25;;
21721;SDS011;11023;48.274;7.794;2022-09-02T13:29:04;1.92;;;1.23;;
21721;SDS011;11023;48.274;7.794;2022-09-02T13:32:00;3.03;;;1.13;;
21721;SDS011;11023;48.274;7.794;2022-09-02T13:34:42;1.70;;;1.15;;
21721;SDS011;11023;48.274;7.794;2022-09-02T13:40:05;5.40;;;1.35;;
21721;SDS011;11023;48.274;7.794;2022-09-02T13:42:45;1.30;;;1.20;;
21721;SDS011;11023;48.274;7.794;2022-09-02T13:45:16;2.45;;;1.30;;
21721;SDS011;11023;48.274;7.794;2022-09-02T13:47:45;2.05;;;1.55;;
21721;SDS011;11023;48.274;7.794;2022-09-02T13:50:25;1.30;;;1.20;;
21721;SDS011;11023;48.274;7.794;2022-09-02T13:52:57;1.30;;;1.20;;
21721;SDS011;11023;48.274;7.794;2022-09-02T13:55:26;4.80;;;1.33;;
21721;SDS011;11023;48.274;7.794;2022-09-02T13:58:06;2.00;;;1.15;;
21721;SDS011;11023;48.274;7.794;2022-09-02T14:00:42;2.75;;;1.10;;
21721;SDS011;11023;48.274;7.794;2022-09-02T14:03:09;4.90;;;1.40;;
21721;SDS011;11023;48.274;7.794;2022-09-02T14:05:42;1.52;;;1.42;;
21721;SDS011;11023;48.274;7.794;2022-09-02T14:08:11;2.22;;;1.02;;
21721;SDS011;11023;48.274;7.794;2022-09-02T14:10:39;2.40;;;1.13;;
21721;SDS011;11023;48.274;7.794;2022-09-02T14:13:06;3.20;;;1.20;;
21721;SDS011;11023;48.274;7.794;2022-09-02T14:15:33;2.63;;;1.25;;
21721;SDS011;11023;48.274;7.794;2022-09-02T14:18:32;1.45;;;1.10;;
21721;SDS011;11023;48.274;7.794;2022-09-02T14:23:20;3.03;;;1.30;;
21721;SDS011;11023;48.274;7.794;2022-09-02T14:25:50;1.95;;;1.30;;
21721;SDS011;11023;48.274;7.794;2022-09-02T14:28:29;2.05;;;1.20;;
21721;SDS011;11023;48.274;7.794;2022-09-02T14:31:04;3.35;;;1.52;;
21721;SDS011;11023;48.274;7.794;2022-09-02T14:33:40;2.03;;;1.33;;
21721;SDS011;11023;48.274;7.794;2022-09-02T14:36:10;3.33;;;1.38;;
21721;SDS011;11023;48.274;7.794;2022-09-02T14:41:24;2.45;;;1.50;;
21721;SDS011;11023;48.274;7.794;2022-09-02T14:43:57;1.55;;;1.40;;
21721;SDS011;11023;48.274;7.794;2022-09-02T14:46:27;1.20;;;1.10;;
21721;SDS011;11023;48.274;7.794;2022-09-02T14:49:05;2.25;;;1.25;;
21721;SDS011;11023;48.274;7.794;2022-09-02T14:51:35;1.30;;;1.20;;
21721;SDS011;11023;48.274;7.794;2022-09-02T14:54:03;1.67;;;1.13;;
21721;SDS011;11023;48.274;7.794;2022-09-02T14:56:47;3.38;;;1.30;;
21721;SDS011;11023;48.274;7.794;2022-09-02T14:59:17;1.90;;;1.30;;
21721;SDS011;11023;48.274;7.794;2022-09-02T15:01:48;1.40;;;1.30;;
21721;SDS011;11023;48.274;7.794;2022-09-02T15:04:15;1.60;;;1.20;;
21721;SDS011;11023;48.274;7.794;2022-09-02T15:06:43;4.70;;;1.52;;
21721;SDS011;11023;48.274;7.794;2022-09-02T15:09:09;1.80;;;1.30;;
21721;SDS011;11023;48.274;7.794;2022-09-02T15:11:38;1.42;;;1.23;;
21721;SDS011;11023;48.274;7.794;2022-09-02T15:14:04;1.30;;;1.20;;
21721;SDS011;11023;48.274;7.794;2022-09-02T15:16:30;3.25;;;1.40;;
21721;SDS011;11023;48.274;7.794;2022-09-02T15:18:56;2.25;;;1.50;;
21721;SDS011;11023;48.274;7.794;2022-09-02T15:21:21;2.15;;;1.30;;
21721;SDS011;11023;48.274;7.794;2022-09-02T15:23:48;2.58;;;1.15;;
21721;SDS011;11023;48.274;7.794;2022-09-02T15:26:14;2.05;;;1.10;;
21721;SDS011;11023;48.274;7.794;2022-09-02T15:28:40;1.25;;;1.15;;
21721;SDS011;11023;48.274;7.794;2022-09-02T15:31:08;1.02;;;0.93;;
21721;SDS011;11023;48.274;7.794;2022-09-02T15:33:33;1.98;;;1.20;;
21721;SDS011;11023;48.274;7.794;2022-09-02T15:36:06;3.33;;;1.30;;
21721;SDS011;11023;48.274;7.794;2022-09-02T15:38:35;2.35;;;1.40;;
21721;SDS011;11023;48.274;7.794;2022-09-02T15:41:21;1.30;;;1.20;;
21721;SDS011;11023;48.274;7.794;2022-09-02T15:43:48;2.72;;;1.10;;
21721;SDS011;11023;48.274;7.794;2022-09-02T15:46:18;3.97;;;1.40;;
21721;SDS011;11023;48.274;7.794;2022-09-02T15:48:44;1.48;;;1.23;;
21721;SDS011;11023;48.274;7.794;2022-09-02T15:51:11;1.38;;;1.17;;
21721;SDS011;11023;48.274;7.794;2022-09-02T15:53:38;2.80;;;1.60;;
21721;SDS011;11023;48.274;7.794;2022-09-02T15:56:03;1.70;;;1.30;;
21721;SDS011;11023;48.274;7.794;2022-09-02T15:58:29;2.03;;;1.40;;
21721;SDS011;11023;48.274;7.794;2022-09-02T16:00:55;2.13;;;1.20;;
21721;SDS011;11023;48.274;7.794;2022-09-02T16:03:27;2.67;;;1.70;;
21721;SDS011;11023;48.274;7.794;2022-09-02T16:05:53;4.38;;;1.52;;
21721;SDS011;11023;48.274;7.794;2022-09-02T16:08:29;2.30;;;1.30;;
21721;SDS011;11023;48.274;7.794;2022-09-02T16:10:54;4.55;;;1.58;;
21721;SDS011;11023;48.274;7.794;2022-09-02T16:13:20;2.28;;;1.50;;
21721;SDS011;11023;48.274;7.794;2022-09-02T16:15:46;2.40;;;1.40;;
21721;SDS011;11023;48.274;7.794;2022-09-02T16:18:12;1.50;;;1.40;;
21721;SDS011;11023;48.274;7.794;2022-09-02T16:20:37;1.33;;;1.17;;
21721;SDS011;11023;48.274;7.794;2022-09-02T16:23:03;2.83;;;1.40;;
21721;SDS011;11023;48.274;7.794;2022-09-02T16:25:29;2.10;;;1.50;;
21721;SDS011;11023;48.274;7.794;2022-09-02T16:27:54;1.83;;;1.50;;
21721;SDS011;11023;48.274;7.794;2022-09-02T16:30:20;2.83;;;1.50;;
21721;SDS011;11023;48.274;7.794;2022-09-02T16:32:46;2.45;;;1.55;;
21721;SDS011;11023;48.274;7.794;2022-09-02T16:35:14;2.35;;;1.52;;
21721;SDS011;11023;48.274;7.794;2022-09-02T16:37:40;1.95;;;1.50;;
21721;SDS011;11023;48.274;7.794;2022-09-02T16:40:06;1.50;;;1.40;;
21721;SDS011;11023;48.274;7.794;2022-09-02T16:42:32;2.03;;;1.35;;
21721;SDS011;11023;48.274;7.794;2022-09-02T16:44:58;3.80;;;1.33;;
21721;SDS011;11023;48.274;7.794;2022-09-02T16:47:24;2.72;;;1.65;;
21721;SDS011;11023;48.274;7.794;2022-09-02T16:49:50;3.60;;;1.63;;
21721;SDS011;11023;48.274;7.794;2022-09-02T16:52:16;4.47;;;1.50;;
21721;SDS011;11023;48.274;7.794;2022-09-02T16:54:42;3.20;;;1.63;;
21721;SDS011;11023;48.274;7.794;2022-09-02T16:57:08;6.32;;;1.50;;
21721;SDS011;11023;48.274;7.794;2022-09-02T16:59:34;5.03;;;1.70;;
21721;SDS011;11023;48.274;7.794;2022-09-02T17:02:00;11.38;;;2.60;;